Terminal Aerodrome Forecast
Issued by NWS

Current Version | Previous Version | Text Only | Print | Product List | Glossary On
Versions: 1 2 3 4 5 6 7 8 9 10 11 12 13
000
FTUS41 KPBZ 181800 RRA
TAFHLG
TAF
KHLG 181814Z 1818/1918 20008KT P6SM BKN120
     FM182200 29007KT P6SM BKN070
     FM190300 34005KT P6SM SKC=

USA.gov is the U.S. government's official web portal to all federal, state and local government web resources and services.